Time;durP1;ratioP1;P1;durP2;ratioP2;P2;SDS_P1;SDS_P2;PMS_P1;PMS_P2;Temp;Humidity;BMP_temperature;BMP_pressure;BME280_temperature;BME280_humidity;BME280_pressure;Samples;Min_cycle;Max_cycle;Signal;HPM_P1;HPM_P2
2022/03/29 00:00:20;;;;;;;128.43;116.63;;;11.20;71.80;;;;;;5033611;28;20098;-77
2022/03/29 00:02:47;;;;;;;127.30;115.50;;;11.20;71.90;;;;;;5034677;28;20046;-77
2022/03/29 00:05:15;;;;;;;129.30;117.30;;;11.20;72.00;;;;;;5033493;28;20060;-77
2022/03/29 00:07:42;;;;;;;128.23;116.55;;;11.20;72.20;;;;;;5033424;28;20509;-77
2022/03/29 00:10:10;;;;;;;127.30;115.68;;;11.20;72.10;;;;;;5033415;28;20042;-77
2022/03/29 00:12:37;;;;;;;128.48;116.68;;;11.10;72.20;;;;;;5033295;28;20133;-77
2022/03/29 00:15:06;;;;;;;127.78;115.97;;;11.10;72.30;;;;;;5033585;28;20075;-77
2022/03/29 00:17:33;;;;;;;127.55;115.70;;;11.10;72.40;;;;;;5034700;28;20500;-77
2022/03/29 00:20:00;;;;;;;128.85;117.20;;;11.10;72.70;;;;;;5033014;28;20180;-77
2022/03/29 00:22:28;;;;;;;128.20;116.30;;;11.10;72.30;;;;;;5034566;28;20058;-77
2022/03/29 00:24:55;;;;;;;128.70;116.55;;;11.10;72.50;;;;;;5034849;28;20056;-77
2022/03/29 00:27:23;;;;;;;129.13;117.18;;;11.00;72.50;;;;;;5034407;28;20064;-77
2022/03/29 00:29:49;;;;;;;128.50;116.60;;;11.00;72.50;;;;;;5034553;28;20057;-77
2022/03/29 00:32:17;;;;;;;129.32;117.13;;;11.00;72.60;;;;;;5020197;28;20428;-77
2022/03/29 00:34:44;;;;;;;129.38;117.60;;;10.90;72.70;;;;;;5013520;28;20898;-77
2022/03/29 00:37:11;;;;;;;132.18;119.88;;;10.90;72.70;;;;;;5013417;28;20046;-77
2022/03/29 00:39:39;;;;;;;130.30;118.32;;;10.90;72.80;;;;;;5013048;28;20058;-77
2022/03/29 00:42:07;;;;;;;129.85;117.78;;;10.90;73.00;;;;;;5013087;28;20105;-77
2022/03/29 00:44:35;;;;;;;129.23;117.32;;;10.90;73.10;;;;;;5013285;28;20050;-77
2022/03/29 00:47:02;;;;;;;132.68;120.53;;;10.80;73.10;;;;;;5014020;28;20042;-77
2022/03/29 00:49:30;;;;;;;130.63;118.53;;;10.80;73.30;;;;;;5013236;28;20051;-77
2022/03/29 00:52:01;;;;;;;132.10;119.80;;;10.80;73.50;;;;;;4996795;28;20047;-76
2022/03/29 00:54:30;;;;;;;131.18;119.05;;;10.70;73.80;;;;;;5013194;28;20482;-77
2022/03/29 00:56:59;;;;;;;133.05;120.65;;;10.70;73.90;;;;;;5014181;28;20054;-77
2022/03/29 00:59:27;;;;;;;130.70;118.70;;;10.70;74.00;;;;;;4996551;28;20060;-77
2022/03/29 01:01:56;;;;;;;131.35;118.95;;;10.60;74.10;;;;;;5014075;28;20054;-77
2022/03/29 01:04:23;;;;;;;130.15;118.05;;;10.70;74.70;;;;;;5012979;28;20051;-77
2022/03/29 01:06:51;;;;;;;129.73;117.60;;;10.60;74.20;;;;;;5022134;28;20053;-77
2022/03/29 01:09:18;;;;;;;130.43;118.25;;;10.60;74.50;;;;;;5016262;28;20054;-77
2022/03/29 01:11:45;;;;;;;130.80;118.70;;;10.60;74.60;;;;;;5032496;28;20125;-77
2022/03/29 01:14:13;;;;;;;130.82;118.53;;;10.60;74.80;;;;;;5033891;28;20129;-77
2022/03/29 01:19:37;;;;;;;129.82;117.55;;;10.60;75.00;;;;;;4972012;28;20190;-77
2022/03/29 01:22:09;;;;;;;128.82;116.93;;;10.60;75.10;;;;;;5019314;28;20058;-77
2022/03/29 01:24:37;;;;;;;128.23;116.35;;;10.60;75.30;;;;;;5032629;28;20537;-77
2022/03/29 01:27:05;;;;;;;131.80;119.25;;;10.60;75.30;;;;;;5033676;28;20060;-77
2022/03/29 01:29:34;;;;;;;130.95;118.63;;;10.60;75.40;;;;;;5033689;28;20072;-77
2022/03/29 01:32:04;;;;;;;130.23;117.97;;;10.60;75.60;;;;;;5033472;28;20056;-77
2022/03/29 01:34:33;;;;;;;131.02;118.60;;;10.60;75.60;;;;;;5033848;28;20062;-77
2022/03/29 01:36:59;;;;;;;129.82;117.53;;;10.60;75.70;;;;;;5033516;28;20064;-77
2022/03/29 01:39:28;;;;;;;130.05;117.57;;;10.50;75.60;;;;;;5032250;28;20050;-77
2022/03/29 01:41:55;;;;;;;127.70;115.60;;;10.50;75.70;;;;;;5018208;28;20057;-77
2022/03/29 01:44:21;;;;;;;128.73;116.53;;;10.50;75.90;;;;;;5012389;28;20056;-77
2022/03/29 01:46:49;;;;;;;129.52;117.32;;;10.40;76.40;;;;;;5012833;28;20511;-78
2022/03/29 01:49:17;;;;;;;128.88;116.80;;;10.30;76.50;;;;;;5013350;28;20050;-77
2022/03/29 01:51:44;;;;;;;127.75;115.70;;;10.30;76.70;;;;;;5012435;28;20051;-77
2022/03/29 01:54:11;;;;;;;127.72;115.85;;;10.40;76.80;;;;;;5013855;28;20055;-77
2022/03/29 01:56:40;;;;;;;129.50;117.10;;;10.40;76.90;;;;;;5016809;28;20082;-77
2022/03/29 01:59:18;;;;;;;127.30;115.32;;;10.40;77.00;;;;;;5018627;28;20055;-77
2022/03/29 02:01:46;;;;;;;127.85;115.72;;;10.40;77.10;;;;;;5017472;28;20051;-77
2022/03/29 02:04:14;;;;;;;128.07;116.00;;;10.30;77.50;;;;;;5016653;28;20047;-77
2022/03/29 02:06:41;;;;;;;128.80;116.40;;;10.20;77.70;;;;;;5015582;28;20046;-77
2022/03/29 02:09:10;;;;;;;128.82;116.70;;;10.10;77.90;;;;;;5015491;28;20047;-77
2022/03/29 02:11:42;;;;;;;127.57;115.40;;;10.10;78.00;;;;;;5015582;28;20057;-77
2022/03/29 02:14:09;;;;;;;126.38;114.47;;;10.10;78.10;;;;;;5017514;28;20058;-77
2022/03/29 02:16:36;;;;;;;128.80;116.38;;;10.20;78.10;;;;;;5027637;28;20050;-77
2022/03/29 02:19:03;;;;;;;127.68;115.60;;;10.20;78.20;;;;;;5018564;28;20042;-77
2022/03/29 02:21:30;;;;;;;128.23;116.07;;;10.20;78.20;;;;;;5035124;28;20050;-77
2022/03/29 02:23:57;;;;;;;128.45;116.32;;;10.20;78.20;;;;;;5035213;28;20042;-77
2022/03/29 02:26:23;;;;;;;129.27;117.10;;;10.20;78.30;;;;;;5035210;28;20148;-77
2022/03/29 02:28:54;;;;;;;129.07;116.85;;;10.30;78.20;;;;;;5034901;28;20133;-77
2022/03/29 02:31:21;;;;;;;127.95;115.80;;;10.30;78.40;;;;;;5034829;28;20049;-77
2022/03/29 02:33:48;;;;;;;128.88;116.53;;;10.30;78.30;;;;;;5034872;28;20056;-79
2022/03/29 02:36:16;;;;;;;128.30;116.05;;;10.30;78.30;;;;;;5035214;28;20049;-77
2022/03/29 02:38:43;;;;;;;127.47;115.43;;;10.30;78.40;;;;;;5034637;28;20053;-77
2022/03/29 02:41:10;;;;;;;128.60;116.30;;;10.30;77.60;;;;;;5034825;28;20850;-77
2022/03/29 02:43:37;;;;;;;131.38;119.00;;;10.30;77.80;;;;;;5035034;28;20064;-77
2022/03/29 02:46:05;;;;;;;133.00;120.40;;;10.30;78.10;;;;;;5034443;28;20041;-77
2022/03/29 02:48:32;;;;;;;131.82;119.25;;;10.30;78.40;;;;;;5034616;28;20054;-77
2022/03/29 02:50:59;;;;;;;132.75;120.03;;;10.30;78.40;;;;;;5021182;28;20051;-77
2022/03/29 02:53:26;;;;;;;131.10;118.50;;;10.30;78.60;;;;;;5015196;28;20130;-77
2022/03/29 02:55:53;;;;;;;131.63;119.20;;;10.30;78.60;;;;;;5014788;28;20060;-76
2022/03/29 02:58:20;;;;;;;132.70;120.00;;;10.30;78.70;;;;;;5016539;28;20050;-76
2022/03/29 03:00:48;;;;;;;130.32;117.95;;;10.30;78.90;;;;;;4998387;28;20073;-77
2022/03/29 03:03:16;;;;;;;130.25;117.93;;;10.30;78.90;;;;;;5014531;28;20065;-77
2022/03/29 03:05:43;;;;;;;130.13;117.80;;;10.30;79.00;;;;;;5014484;28;20622;-77
2022/03/29 03:08:10;;;;;;;130.32;118.03;;;10.30;79.10;;;;;;5014254;28;20532;-77
2022/03/29 03:10:37;;;;;;;130.88;118.47;;;10.30;79.10;;;;;;5015854;28;20061;-77
2022/03/29 03:13:04;;;;;;;129.63;117.20;;;10.20;78.50;;;;;;5014760;28;20060;-77
2022/03/29 03:15:31;;;;;;;131.50;118.60;;;10.30;78.30;;;;;;5015973;28;20062;-76
2022/03/29 03:17:58;;;;;;;129.75;117.30;;;10.30;78.60;;;;;;5015774;28;20058;-77
2022/03/29 03:20:26;;;;;;;130.95;118.47;;;10.30;78.90;;;;;;5015734;28;20057;-77
2022/03/29 03:22:54;;;;;;;130.55;117.90;;;10.30;79.10;;;;;;5014873;28;20514;-76
2022/03/29 03:25:23;;;;;;;131.32;118.78;;;10.30;79.10;;;;;;5016715;28;20129;-77
2022/03/29 03:27:50;;;;;;;132.50;119.80;;;10.30;79.10;;;;;;5013905;28;20082;-76
2022/03/29 03:30:18;;;;;;;130.23;117.80;;;10.30;79.20;;;;;;5014284;28;20065;-77
2022/03/29 03:32:45;;;;;;;132.20;119.53;;;10.30;79.40;;;;;;5013806;28;20051;-77
2022/03/29 03:35:12;;;;;;;129.82;117.22;;;10.30;79.40;;;;;;5014446;28;20061;-77
2022/03/29 03:37:40;;;;;;;130.05;117.43;;;10.30;79.40;;;;;;5013843;28;20113;-77
2022/03/29 03:40:10;;;;;;;130.07;117.60;;;10.20;79.20;;;;;;4997576;28;20050;-77
2022/03/29 03:42:38;;;;;;;130.73;117.93;;;10.20;78.60;;;;;;5015303;28;20539;-77
2022/03/29 03:45:06;;;;;;;134.93;121.65;;;10.20;78.80;;;;;;5014619;28;20082;-77
2022/03/29 03:47:33;;;;;;;133.95;121.15;;;10.20;79.20;;;;;;5013915;28;20051;-77
2022/03/29 03:50:00;;;;;;;133.40;120.57;;;10.20;78.80;;;;;;5014032;28;20054;-77
2022/03/29 03:52:28;;;;;;;133.32;120.32;;;10.10;78.70;;;;;;5013889;28;20053;-77
2022/03/29 03:54:56;;;;;;;134.48;121.70;;;10.10;79.10;;;;;;5014340;28;20042;-77
2022/03/29 03:57:23;;;;;;;133.38;120.68;;;10.10;78.90;;;;;;5013725;28;20051;-77
2022/03/29 03:59:51;;;;;;;131.40;118.78;;;10.10;79.00;;;;;;5020161;28;20061;-76
2022/03/29 04:02:19;;;;;;;131.15;118.57;;;10.10;79.30;;;;;;5033580;28;20050;-77
2022/03/29 04:04:46;;;;;;;131.40;118.70;;;10.00;78.90;;;;;;5033591;28;20042;-77
2022/03/29 04:07:13;;;;;;;129.05;116.82;;;10.00;78.60;;;;;;5033498;28;20050;-77
2022/03/29 04:09:40;;;;;;;127.05;114.70;;;10.00;79.10;;;;;;5033580;28;20512;-77
2022/03/29 04:12:09;;;;;;;132.38;119.40;;;10.00;79.40;;;;;;5036678;28;20511;-78
2022/03/29 04:14:37;;;;;;;129.38;117.03;;;10.00;79.40;;;;;;5033444;28;20064;-77
2022/03/29 04:17:04;;;;;;;133.68;120.70;;;10.00;79.20;;;;;;5032260;28;20053;-77
2022/03/29 04:19:31;;;;;;;132.55;119.47;;;10.00;79.30;;;;;;5032890;28;20073;-77
2022/03/29 04:21:58;;;;;;;131.27;118.57;;;10.00;79.40;;;;;;5033368;28;20130;-77
2022/03/29 04:24:25;;;;;;;130.45;117.82;;;10.10;80.00;;;;;;5033637;28;20053;-77
2022/03/29 04:26:52;;;;;;;130.27;117.68;;;10.00;79.90;;;;;;5034668;28;20809;-76
2022/03/29 04:29:21;;;;;;;129.95;117.35;;;10.10;79.90;;;;;;5034514;28;20064;-76
2022/03/29 04:31:49;;;;;;;128.50;116.28;;;10.10;79.30;;;;;;5032993;28;20050;-77
2022/03/29 04:34:16;;;;;;;130.13;117.43;;;10.10;79.20;;;;;;5032116;28;20057;-77
2022/03/29 04:36:43;;;;;;;131.27;118.53;;;10.10;79.90;;;;;;5032986;28;20057;-77
2022/03/29 04:39:10;;;;;;;128.90;116.43;;;10.00;80.10;;;;;;5034006;28;20050;-77
2022/03/29 04:41:37;;;;;;;130.82;118.13;;;10.10;80.40;;;;;;5016463;28;20050;-77
2022/03/29 04:44:04;;;;;;;129.77;116.97;;;10.10;80.50;;;;;;5034621;28;20976;-77
2022/03/29 04:46:32;;;;;;;129.95;117.45;;;10.10;80.40;;;;;;5033008;28;20049;-77
2022/03/29 04:48:59;;;;;;;130.70;117.93;;;10.10;80.40;;;;;;5032906;28;20431;-77
2022/03/29 04:51:26;;;;;;;129.05;116.32;;;10.10;80.40;;;;;;5034197;28;20076;-76
2022/03/29 04:53:53;;;;;;;130.23;117.30;;;10.10;80.50;;;;;;5033106;28;20145;-76
2022/03/29 04:56:20;;;;;;;130.77;118.28;;;10.10;80.70;;;;;;5034166;28;20049;-77
2022/03/29 04:58:47;;;;;;;132.38;119.32;;;10.10;80.80;;;;;;5033834;28;20054;-77
2022/03/29 05:01:14;;;;;;;131.40;118.35;;;10.10;81.10;;;;;;5032379;28;20482;-77
2022/03/29 05:03:43;;;;;;;130.95;117.78;;;10.10;81.30;;;;;;5032328;28;20108;-77
2022/03/29 05:06:10;;;;;;;131.35;118.63;;;10.10;81.40;;;;;;5032562;28;20155;-76
2022/03/29 05:08:37;;;;;;;135.57;122.55;;;10.10;81.40;;;;;;5030177;28;20054;-77
2022/03/29 05:11:04;;;;;;;129.50;116.88;;;10.10;81.40;;;;;;5033948;28;20054;-76
2022/03/29 05:13:31;;;;;;;146.48;131.75;;;10.10;81.50;;;;;;5032573;28;20526;-76
2022/03/29 05:15:58;;;;;;;130.57;116.95;;;10.10;82.00;;;;;;5033830;28;20080;-77
2022/03/29 05:18:25;;;;;;;130.23;117.47;;;10.00;81.60;;;;;;5032124;28;20045;-77
2022/03/29 05:20:53;;;;;;;133.98;120.25;;;10.10;81.60;;;;;;5033498;28;20049;-77
2022/03/29 05:23:22;;;;;;;129.90;117.28;;;10.10;82.00;;;;;;5033181;28;20072;-77
2022/03/29 05:25:48;;;;;;;131.65;118.97;;;10.00;82.00;;;;;;5030895;28;20089;-77
2022/03/29 05:28:15;;;;;;;131.80;118.97;;;10.10;82.00;;;;;;5014351;28;20080;-76
2022/03/29 05:30:42;;;;;;;131.38;118.50;;;10.10;82.40;;;;;;5034010;28;20056;-77
2022/03/29 05:33:15;;;;;;;132.20;119.50;;;10.10;82.70;;;;;;5034267;28;20046;-76
2022/03/29 05:35:43;;;;;;;131.50;118.70;;;10.00;82.70;;;;;;5034102;28;20053;-76
2022/03/29 05:38:11;;;;;;;131.07;118.38;;;10.00;82.80;;;;;;5031911;28;20133;-75
2022/03/29 05:40:39;;;;;;;129.68;117.20;;;10.00;83.00;;;;;;5033047;28;20042;-75
2022/03/29 05:43:11;;;;;;;132.13;119.13;;;10.00;83.10;;;;;;5034482;28;20591;-76
2022/03/29 05:45:38;;;;;;;131.13;118.22;;;10.00;83.30;;;;;;5032417;28;20057;-76
2022/03/29 05:50:50;;;;;;;131.88;118.88;;;10.00;83.40;;;;;;5034001;28;20046;-75
2022/03/29 05:53:19;;;;;;;173.20;119.50;;;10.00;83.20;;;;;;5034830;28;20042;-76
2022/03/29 05:55:48;;;;;;;131.60;118.32;;;10.00;83.50;;;;;;5035225;28;20056;-76
2022/03/29 05:58:16;;;;;;;130.25;117.47;;;10.00;83.50;;;;;;5031772;28;20042;-76
2022/03/29 06:00:43;;;;;;;128.93;116.22;;;10.00;83.70;;;;;;5034621;28;20053;-76
2022/03/29 06:03:11;;;;;;;129.35;116.60;;;10.00;83.70;;;;;;5034758;28;20108;-75
2022/03/29 06:05:41;;;;;;;128.88;116.35;;;10.00;83.70;;;;;;5034384;28;20045;-75
2022/03/29 06:08:09;;;;;;;130.25;117.25;;;9.90;83.60;;;;;;5017854;28;20042;-75
2022/03/29 06:10:38;;;;;;;130.73;117.50;;;9.90;83.70;;;;;;5034648;28;20515;-76
2022/03/29 06:13:08;;;;;;;130.90;117.88;;;9.90;83.80;;;;;;5035941;28;20058;-76
2022/03/29 06:15:36;;;;;;;334.60;126.95;;;9.90;83.80;;;;;;5034664;28;20133;-76
2022/03/29 06:18:03;;;;;;;138.70;119.18;;;9.90;83.80;;;;;;5034604;28;20046;-75
2022/03/29 06:20:31;;;;;;;131.85;118.28;;;9.90;83.90;;;;;;5033073;28;20057;-76
2022/03/29 06:22:58;;;;;;;130.35;117.47;;;9.90;84.00;;;;;;5035503;28;20086;-76
2022/03/29 06:25:25;;;;;;;131.02;117.85;;;9.90;84.20;;;;;;5024714;28;20061;-75
2022/03/29 06:27:54;;;;;;;130.88;117.88;;;9.90;84.20;;;;;;5017400;28;20054;-75
2022/03/29 06:30:21;;;;;;;135.23;121.55;;;9.90;84.50;;;;;;5030299;28;20050;-75
2022/03/29 06:32:49;;;;;;;130.43;117.28;;;9.90;84.50;;;;;;5034613;28;20081;-75
2022/03/29 06:35:19;;;;;;;131.88;118.30;;;9.90;84.60;;;;;;5034016;28;20050;-75
2022/03/29 06:37:45;;;;;;;132.68;119.30;;;9.90;84.60;;;;;;5065363;22;20051;-75
2022/03/29 06:40:13;;;;;;;134.65;121.15;;;9.90;84.60;;;;;;4994589;28;20059;-75
2022/03/29 06:42:40;;;;;;;137.43;123.65;;;9.90;84.60;;;;;;4991443;28;20113;-75
2022/03/29 06:45:10;;;;;;;135.80;121.88;;;9.90;84.70;;;;;;4993808;28;20050;-75
2022/03/29 06:47:38;;;;;;;134.90;121.32;;;9.90;84.70;;;;;;4993106;28;20057;-74
2022/03/29 06:50:07;;;;;;;132.48;118.85;;;9.90;84.70;;;;;;4993480;28;20138;-75
2022/03/29 06:52:36;;;;;;;135.18;121.75;;;9.90;84.90;;;;;;4994199;28;20085;-74
2022/03/29 06:55:04;;;;;;;134.40;120.82;;;9.90;84.90;;;;;;4991701;28;20062;-75
2022/03/29 06:57:31;;;;;;;135.32;121.35;;;9.90;84.80;;;;;;4983955;28;20054;-75
2022/03/29 06:59:58;;;;;;;132.55;118.65;;;9.90;84.80;;;;;;4993371;28;20137;-75
2022/03/29 07:02:28;;;;;;;133.95;120.95;;;9.90;84.90;;;;;;4993009;28;20516;-76
2022/03/29 07:04:55;;;;;;;133.80;120.28;;;9.90;85.20;;;;;;4994251;28;20528;-75
2022/03/29 07:07:22;;;;;;;133.77;119.63;;;9.90;85.30;;;;;;4992991;28;20050;-75
2022/03/29 07:12:46;;;;;;;134.85;120.40;;;9.90;85.60;;;;;;4986097;28;20054;-76
2022/03/29 07:15:13;;;;;;;136.02;122.13;;;9.90;85.70;;;;;;4991011;28;20046;-76
2022/03/29 07:17:41;;;;;;;131.65;118.30;;;9.90;85.80;;;;;;4993978;28;20145;-76
2022/03/29 07:20:09;;;;;;;131.95;118.43;;;9.90;85.90;;;;;;4991511;28;20059;-76
2022/03/29 07:22:36;;;;;;;130.98;117.85;;;9.90;85.90;;;;;;4992554;28;20527;-76
2022/03/29 07:25:04;;;;;;;132.23;118.55;;;9.90;86.00;;;;;;4990029;28;20466;-76
2022/03/29 07:27:31;;;;;;;131.88;118.25;;;9.90;86.10;;;;;;4990242;28;20054;-76
2022/03/29 07:29:59;;;;;;;131.02;117.82;;;9.90;86.10;;;;;;4990945;28;20468;-76
2022/03/29 07:32:27;;;;;;;131.90;118.60;;;9.90;86.10;;;;;;4989894;28;20062;-76
2022/03/29 07:34:55;;;;;;;133.35;119.85;;;10.00;86.10;;;;;;4992164;28;20087;-76
2022/03/29 07:37:23;;;;;;;134.25;120.57;;;10.00;86.20;;;;;;4993766;28;20592;-76
2022/03/29 07:39:53;;;;;;;134.35;120.97;;;10.00;86.10;;;;;;4994430;28;20058;-76
2022/03/29 07:42:22;;;;;;;133.95;120.63;;;10.00;86.10;;;;;;4977324;28;20130;-76
2022/03/29 07:44:50;;;;;;;136.52;123.20;;;10.10;86.20;;;;;;4994292;28;20055;-75
2022/03/29 07:47:19;;;;;;;133.07;119.82;;;10.10;86.20;;;;;;4993269;28;20051;-76
2022/03/29 07:49:46;;;;;;;133.80;119.93;;;10.10;86.30;;;;;;4992665;28;20142;-76
2022/03/29 07:52:15;;;;;;;134.85;121.07;;;10.10;86.60;;;;;;4991388;28;20565;-76
2022/03/29 07:54:42;;;;;;;134.43;120.80;;;10.20;86.60;;;;;;4987404;28;20528;-76
2022/03/29 07:57:09;;;;;;;141.02;126.88;;;10.20;86.60;;;;;;4990186;28;20053;-75
2022/03/29 07:59:37;;;;;;;140.35;126.65;;;10.20;86.40;;;;;;4994980;28;20054;-76
2022/03/29 08:02:05;;;;;;;142.55;128.57;;;10.20;86.30;;;;;;4992168;28;20057;-76
2022/03/29 08:04:33;;;;;;;142.32;127.25;;;10.20;86.30;;;;;;4993104;28;20054;-77
2022/03/29 08:07:00;;;;;;;144.38;130.25;;;10.30;86.30;;;;;;4991126;28;20053;-76
2022/03/29 08:09:29;;;;;;;138.05;124.13;;;10.30;86.50;;;;;;4990077;28;20173;-76
2022/03/29 08:11:56;;;;;;;137.10;122.95;;;10.30;86.00;;;;;;4991388;28;20077;-76
2022/03/29 08:14:24;;;;;;;137.00;123.57;;;10.30;86.00;;;;;;4992649;28;20541;-78
2022/03/29 08:16:51;;;;;;;136.48;122.70;;;10.30;85.90;;;;;;4992355;28;20515;-75
2022/03/29 08:19:17;;;;;;;135.32;121.82;;;10.30;85.90;;;;;;4992825;28;20138;-75
2022/03/29 08:21:51;;;;;;;136.80;122.90;;;10.40;86.00;;;;;;4992398;28;20519;-76
2022/03/29 08:24:18;;;;;;;135.57;121.80;;;10.40;86.10;;;;;;4991630;28;20054;-76
2022/03/29 08:26:47;;;;;;;133.30;119.95;;;10.40;85.90;;;;;;4993799;28;20054;-77
2022/03/29 08:29:15;;;;;;;136.60;123.03;;;10.50;85.70;;;;;;5004614;28;20503;-76
2022/03/29 08:31:42;;;;;;;133.48;120.50;;;10.50;85.60;;;;;;4992584;28;20531;-75
2022/03/29 08:34:09;;;;;;;132.48;118.97;;;10.50;85.40;;;;;;4992425;28;20058;-79
2022/03/29 08:36:38;;;;;;;134.55;120.85;;;10.50;85.40;;;;;;4992952;28;20050;-75
2022/03/29 08:39:05;;;;;;;131.85;118.65;;;10.50;85.40;;;;;;4991819;28;20129;-75
2022/03/29 08:41:36;;;;;;;130.65;117.50;;;10.60;85.40;;;;;;4993606;28;20141;-76
2022/03/29 08:44:07;;;;;;;131.45;118.05;;;10.60;85.20;;;;;;4989088;28;20102;-76
2022/03/29 08:46:35;;;;;;;133.73;120.50;;;10.60;85.00;;;;;;4992034;28;20401;-76
2022/03/29 08:49:04;;;;;;;131.77;118.22;;;10.60;84.80;;;;;;4991209;28;20092;-76
2022/03/29 08:51:31;;;;;;;132.60;119.03;;;10.60;84.90;;;;;;4989387;28;20500;-76
2022/03/29 08:53:58;;;;;;;136.48;121.88;;;10.70;84.80;;;;;;4991778;28;20055;-76
2022/03/29 08:56:25;;;;;;;135.07;120.85;;;10.70;84.90;;;;;;4975133;28;20047;-76
2022/03/29 08:58:53;;;;;;;133.20;119.40;;;10.70;84.80;;;;;;4991758;28;20481;-76
2022/03/29 09:01:22;;;;;;;134.50;120.80;;;10.70;84.60;;;;;;4992238;28;20057;-76
2022/03/29 09:04:08;;;;;;;130.50;117.00;;;10.70;84.50;;;;;;4992251;28;20051;-77
2022/03/29 09:06:54;;;;;;;131.13;117.90;;;10.70;84.40;;;;;;4991174;28;20057;-76
2022/03/29 09:09:23;;;;;;;129.88;116.80;;;10.70;84.60;;;;;;4990672;28;20178;-76
2022/03/29 09:11:50;;;;;;;129.90;117.10;;;10.70;84.50;;;;;;4992970;28;20051;-76
2022/03/29 09:14:18;;;;;;;131.80;118.28;;;10.80;84.50;;;;;;4991625;28;20043;-76
2022/03/29 09:16:46;;;;;;;131.30;117.53;;;10.80;84.50;;;;;;4991293;28;20685;-76
2022/03/29 09:19:13;;;;;;;136.48;122.75;;;10.80;84.50;;;;;;4990084;28;20047;-76
2022/03/29 09:21:42;;;;;;;130.23;116.82;;;10.80;84.50;;;;;;4991312;28;20057;-76
2022/03/29 09:24:11;;;;;;;130.55;117.57;;;10.90;84.60;;;;;;4991004;28;20050;-76
2022/03/29 09:26:40;;;;;;;127.95;115.28;;;10.90;84.70;;;;;;4991945;28;20058;-76
2022/03/29 09:29:14;;;;;;;130.88;118.13;;;11.00;84.60;;;;;;4991799;28;20509;-76
2022/03/29 09:31:42;;;;;;;128.88;115.97;;;11.00;84.40;;;;;;4993080;28;20057;-76
2022/03/29 09:34:16;;;;;;;127.60;114.35;;;11.10;84.50;;;;;;4990520;28;20058;-76
2022/03/29 09:36:45;;;;;;;130.63;116.97;;;11.10;84.50;;;;;;4990514;28;20580;-79
2022/03/29 09:39:32;;;;;;;130.60;117.78;;;11.20;84.10;;;;;;4988205;28;20106;-78
2022/03/29 09:42:00;;;;;;;129.80;116.78;;;11.20;83.40;;;;;;4978212;28;20079;-77
2022/03/29 09:44:37;;;;;;;133.73;120.60;;;11.20;83.50;;;;;;4967069;28;20062;-76
2022/03/29 09:47:07;;;;;;;133.75;120.72;;;11.30;83.60;;;;;;4984940;28;20050;-77
2022/03/29 09:49:54;;;;;;;130.20;117.47;;;11.40;83.70;;;;;;4991587;28;20043;-76
2022/03/29 09:52:23;;;;;;;130.68;117.72;;;11.40;83.50;;;;;;4990367;28;20138;-76
2022/03/29 09:55:14;;;;;;;131.10;117.90;;;11.50;83.30;;;;;;4972296;28;20052;-77
2022/03/29 09:57:44;;;;;;;133.98;120.28;;;11.50;82.60;;;;;;4974232;28;20058;-77
2022/03/29 10:00:14;;;;;;;132.55;119.40;;;11.50;82.40;;;;;;4990753;28;20059;-77
2022/03/29 10:02:47;;;;;;;130.32;117.07;;;11.50;82.10;;;;;;4990959;28;20507;-77
2022/03/29 10:05:17;;;;;;;130.27;117.45;;;11.60;82.30;;;;;;4990296;28;20357;-77
2022/03/29 10:07:46;;;;;;;133.38;120.22;;;11.70;82.20;;;;;;4988095;28;20047;-77
2022/03/29 10:10:13;;;;;;;133.18;119.68;;;11.70;82.00;;;;;;4990590;28;20054;-77
2022/03/29 10:12:40;;;;;;;133.85;119.95;;;11.80;81.90;;;;;;4992019;28;20508;-77
2022/03/29 10:15:09;;;;;;;132.90;119.97;;;11.90;81.50;;;;;;4991511;28;20055;-77
2022/03/29 10:17:36;;;;;;;132.45;119.30;;;12.00;81.30;;;;;;4994214;28;20047;-77
2022/03/29 10:20:06;;;;;;;134.00;120.72;;;12.00;81.00;;;;;;4991763;28;20473;-77
2022/03/29 10:22:36;;;;;;;134.05;120.47;;;12.10;80.70;;;;;;4994658;28;20055;-77
2022/03/29 10:25:04;;;;;;;132.77;119.50;;;12.10;80.40;;;;;;4994541;28;20047;-77
2022/03/29 10:27:32;;;;;;;132.95;119.78;;;12.10;80.30;;;;;;4994256;28;20564;-77
2022/03/29 10:29:59;;;;;;;133.20;119.95;;;12.10;80.40;;;;;;4993551;28;20505;-77
2022/03/29 10:32:33;;;;;;;131.57;118.88;;;12.20;80.20;;;;;;4977852;28;20081;-77
2022/03/29 10:35:08;;;;;;;221.02;125.03;;;12.30;79.80;;;;;;4993658;28;21970;-77
2022/03/29 10:37:57;;;;;;;131.40;118.35;;;12.30;79.00;;;;;;4993512;28;20114;-76
2022/03/29 10:40:38;;;;;;;135.60;122.30;;;12.30;78.70;;;;;;4995053;28;20058;-77
2022/03/29 10:43:28;;;;;;;131.18;118.20;;;12.40;78.90;;;;;;4992805;28;20669;-77
2022/03/29 10:45:55;;;;;;;132.15;119.15;;;12.40;78.90;;;;;;4987452;28;20134;-79
2022/03/29 10:48:22;;;;;;;131.85;119.07;;;12.50;78.60;;;;;;4993422;28;20047;-80
2022/03/29 10:51:00;;;;;;;131.52;118.72;;;12.50;78.80;;;;;;4994086;28;20066;-81
2022/03/29 10:53:31;;;;;;;130.05;117.05;;;12.50;78.70;;;;;;4976222;28;20078;-81
2022/03/29 10:56:17;;;;;;;130.43;117.97;;;12.50;78.30;;;;;;5007858;28;20457;-80
2022/03/29 10:59:13;;;;;;;130.88;118.07;;;12.60;77.40;;;;;;4991484;28;20512;-83
2022/03/29 11:01:42;;;;;;;131.60;118.80;;;12.60;77.90;;;;;;4990569;28;20090;-82
2022/03/29 11:04:16;;;;;;;134.95;122.05;;;12.60;78.10;;;;;;4984417;28;20054;-79
2022/03/29 11:07:13;;;;;;;132.98;120.15;;;12.60;78.00;;;;;;4977677;28;20050;-81
2022/03/29 11:09:44;;;;;;;133.00;120.20;;;12.70;78.10;;;;;;4993095;28;20054;-82
2022/03/29 11:12:51;;;;;;;134.35;121.18;;;12.70;78.00;;;;;;4993631;28;20061;-81
2022/03/29 11:15:45;;;;;;;133.27;120.07;;;12.80;79.20;;;;;;4967767;28;20145;-82
2022/03/29 11:18:49;;;;;;;137.45;123.80;;;12.90;78.10;;;;;;4991119;28;20055;-76
2022/03/29 11:21:37;;;;;;;131.75;119.07;;;13.00;76.50;;;;;;4992686;28;20058;-76
2022/03/29 11:24:06;;;;;;;131.00;118.53;;;13.10;77.00;;;;;;4992489;28;20521;-76
2022/03/29 11:26:36;;;;;;;131.65;119.20;;;13.10;76.90;;;;;;4992788;28;20584;-77
2022/03/29 11:29:06;;;;;;;132.80;120.20;;;13.20;76.50;;;;;;4990535;28;20110;-77
2022/03/29 11:31:38;;;;;;;132.80;120.43;;;13.30;76.30;;;;;;4976491;28;20512;-76
2022/03/29 11:34:09;;;;;;;129.60;117.65;;;13.30;76.40;;;;;;4991200;28;20541;-75
2022/03/29 11:36:37;;;;;;;133.90;121.28;;;13.50;77.10;;;;;;4990417;28;20062;-76
2022/03/29 11:39:10;;;;;;;133.43;120.78;;;13.50;76.90;;;;;;4991790;28;20432;-76
2022/03/29 11:41:39;;;;;;;133.18;120.38;;;13.60;76.40;;;;;;4991629;28;20055;-76
2022/03/29 11:44:07;;;;;;;133.18;120.70;;;13.70;75.40;;;;;;4994439;28;20055;-77
2022/03/29 11:46:49;;;;;;;135.50;122.57;;;13.80;75.30;;;;;;4992637;28;20075;-77
2022/03/29 11:49:16;;;;;;;132.60;119.75;;;13.80;75.70;;;;;;4971573;28;20514;-76
2022/03/29 11:51:43;;;;;;;134.02;121.35;;;14.00;76.00;;;;;;4988838;28;20582;-76
2022/03/29 11:54:10;;;;;;;131.88;119.45;;;14.00;75.10;;;;;;4992815;28;20150;-76
2022/03/29 11:56:39;;;;;;;138.20;125.07;;;14.10;74.10;;;;;;4992073;28;20548;-76
2022/03/29 11:59:14;;;;;;;130.88;118.18;;;14.30;73.90;;;;;;4984208;28;20051;-76
2022/03/29 12:01:41;;;;;;;129.35;117.00;;;14.40;73.80;;;;;;4982159;28;20047;-76
2022/03/29 12:04:09;;;;;;;132.98;120.65;;;14.50;74.00;;;;;;4973667;28;20078;-77
2022/03/29 12:06:48;;;;;;;136.35;123.28;;;14.60;73.40;;;;;;4973757;28;20137;-77
2022/03/29 12:09:22;;;;;;;133.48;121.07;;;14.70;73.00;;;;;;4973501;28;20134;-77
2022/03/29 12:11:54;;;;;;;133.63;121.25;;;14.80;71.00;;;;;;4975071;28;20426;-74
2022/03/29 12:14:22;;;;;;;133.68;121.05;;;14.70;70.50;;;;;;4956931;28;20189;-75
2022/03/29 12:16:51;;;;;;;130.30;118.28;;;14.80;70.40;;;;;;4957275;28;20051;-75
2022/03/29 12:19:20;;;;;;;130.80;118.90;;;14.80;70.70;;;;;;4973421;28;20055;-75
2022/03/29 12:21:49;;;;;;;135.30;121.75;;;14.90;70.60;;;;;;4981785;28;20147;-75
2022/03/29 12:24:16;;;;;;;131.07;119.20;;;14.90;70.80;;;;;;4992001;28;20050;-75
2022/03/29 12:26:48;;;;;;;132.18;120.15;;;15.00;70.70;;;;;;4993908;28;20079;-74